Aviation Digital Data Service (ADDS)

Output produced by METARs form (1733 UTC 24 June 2019)
found at http://www.aviationweather.gov/metar/data/
 
Forecast for: VTBD (BANGKOK/DON MUAN, TH)
Text: TAF VTBD 241100Z 2412/2518 16008KT 9999 FEW020
Forecast period: 1200 UTC 24 June 2019 to 0300 UTC 25 June 2019
Forecast type: FROM: standard forecast or significant change
Winds: from the SSE (160 degrees) at 9 MPH (8 knots; 4.1 m/s)
Visibility: 6 or more miles 10+ km)
Ceiling: at least 12,000 feet AGL
Clouds: few clouds at 2000 feet AGL
Weather: no significant weather forecast for this period
Text: BECMG 2503/2505 22008KT
Forecast period: 0300 to 1800 UTC 25 June 2019
Forecast type: BECOMING: Conditions expected to become as follows by 0500 UTC 25 June 2019
Winds: from the SW (220 degrees) at 9 MPH (8 knots; 4.1 m/s)
Visibility: 6 or more miles 10+ km)
Ceiling: at least 12,000 feet AGL
Clouds: few clouds at 2000 feet AGL
Weather: no significant weather forecast for this period
Text: TEMPO 2508/2512 24015KT 5000 TSRA FEW018CB SCT030 BKN100
Forecast period: 0800 to 1200 UTC 25 June 2019
Forecast type: TEMPORARY: The following changes expected for less than half the time period
Winds: from the WSW (240 degrees) at 17 MPH (15 knots; 7.7 m/s)
Visibility: 3 miles (5 km)
Ceiling: 10000 feet AGL
Clouds: few clouds at 1800 feet AGL
scattered clouds at 3000 feet AGL
broken clouds at 10000 feet AGL
Weather: TSRA  (rain associated with thunderstorm(s))